createdAt,value
2022-11-16T00:01:00.821Z,98364.58
2022-11-16T00:03:53.155Z,98367.29
2022-11-16T00:06:42.947Z,98361.52
2022-11-16T00:09:33.251Z,98359.02
2022-11-16T00:12:26.304Z,98362.77
2022-11-16T00:15:16.120Z,98366.71
2022-11-16T00:18:05.990Z,98363.70
2022-11-16T00:20:55.738Z,98363.70
2022-11-16T00:23:45.536Z,98364.42
2022-11-16T00:26:35.219Z,98365.48
2022-11-16T00:29:26.280Z,98364.78
2022-11-16T00:32:15.572Z,98363.58
2022-11-16T00:35:06.439Z,98366.36
2022-11-16T00:37:56.089Z,98366.23
2022-11-16T00:40:45.715Z,98361.89
2022-11-16T00:43:36.738Z,98360.96
2022-11-16T00:46:26.274Z,98360.89
2022-11-16T00:49:16.180Z,98358.61
2022-11-16T00:52:05.864Z,98359.09
2022-11-16T00:54:55.502Z,98357.52
2022-11-16T00:57:45.255Z,98355.61
2022-11-16T01:00:35.987Z,98355.69
2022-11-16T01:03:25.809Z,98357.79
2022-11-16T01:06:16.400Z,98357.46
2022-11-16T01:09:06.307Z,98357.46
2022-11-16T01:12:12.018Z,98356.65
2022-11-16T01:15:01.870Z,98357.26
2022-11-16T01:17:52.317Z,98359.91
2022-11-16T01:20:42.185Z,98356.30
2022-11-16T01:23:31.595Z,98349.38
2022-11-16T01:26:21.074Z,98347.20
2022-11-16T01:29:10.654Z,98342.05
2022-11-16T01:32:03.394Z,98340.73
2022-11-16T01:34:54.010Z,98336.66
2022-11-16T01:37:49.917Z,98336.23
2022-11-16T01:40:40.214Z,98330.73
2022-11-16T01:43:29.666Z,98333.16
2022-11-16T01:46:25.623Z,98326.91
2022-11-16T01:49:20.374Z,98326.40
2022-11-16T01:52:14.501Z,98329.10
2022-11-16T01:55:05.462Z,98331.23
2022-11-16T01:58:09.069Z,98332.29
2022-11-16T02:01:01.177Z,98330.09
2022-11-16T02:03:55.481Z,98328.87
2022-11-16T02:07:01.330Z,98329.13
2022-11-16T02:10:13.874Z,98331.05
2022-11-16T02:13:22.482Z,98334.43
2022-11-16T02:16:23.395Z,98331.02
2022-11-16T02:19:43.886Z,98324.36
2022-11-16T02:22:52.590Z,98316.93
2022-11-16T02:25:58.035Z,98318.10
2022-11-16T02:28:58.969Z,98321.05
2022-11-16T02:31:54.014Z,98324.56
2022-11-16T02:34:49.323Z,98321.38
2022-11-16T02:37:43.034Z,98324.41
2022-11-16T02:40:36.055Z,98321.79
2022-11-16T02:43:34.133Z,98320.95
2022-11-16T02:46:31.091Z,98318.46
2022-11-16T02:49:22.608Z,98317.70
2022-11-16T02:52:14.633Z,98319.40
2022-11-16T02:55:05.188Z,98321.58
2022-11-16T02:57:55.631Z,98321.52
2022-11-16T03:00:51.490Z,98318.73
2022-11-16T03:03:49.261Z,98314.71
2022-11-16T03:06:41.442Z,98313.44
2022-11-16T03:09:34.872Z,98309.17
2022-11-16T03:12:33.393Z,98307.25
2022-11-16T03:15:23.679Z,98304.11
2022-11-16T03:18:16.672Z,98301.61
2022-11-16T03:21:13.836Z,98303.85
2022-11-16T03:24:07.698Z,98308.64
2022-11-16T03:27:05.546Z,98308.20
2022-11-16T03:30:04.722Z,98303.71
2022-11-16T03:33:03.983Z,98304.31
2022-11-16T03:36:01.140Z,98300.16
2022-11-16T03:38:54.606Z,98299.92
2022-11-16T03:41:46.707Z,98297.51
2022-11-16T03:44:36.978Z,98301.36
2022-11-16T03:47:27.985Z,98299.42
2022-11-16T03:50:17.514Z,98299.76
2022-11-16T03:53:07.042Z,98298.20
2022-11-16T03:55:57.978Z,98301.06
2022-11-16T03:58:49.529Z,98301.86
2022-11-16T04:01:44.492Z,98300.95
2022-11-16T04:04:54.623Z,98305.44
2022-11-16T04:08:05.759Z,98309.08
2022-11-16T04:11:14.027Z,98305.73
2022-11-16T04:14:22.368Z,98307.23
2022-11-16T04:17:31.857Z,98308.89
2022-11-16T04:20:39.967Z,98315.27
2022-11-16T04:23:48.408Z,98319.13
2022-11-16T04:26:57.583Z,98321.45
2022-11-16T04:29:48.506Z,98321.86
2022-11-16T04:32:56.873Z,98319.44
2022-11-16T04:36:07.121Z,98320.98
2022-11-16T04:38:56.688Z,98322.06
2022-11-16T04:42:04.897Z,98320.34
2022-11-16T04:45:12.797Z,98322.64
2022-11-16T04:48:13.101Z,98326.20
2022-11-16T04:51:02.819Z,98331.34
2022-11-16T04:53:56.820Z,98338.41
2022-11-16T04:56:46.160Z,98340.30
2022-11-16T04:59:35.817Z,98341.23
2022-11-16T05:02:25.783Z,98337.20
2022-11-16T05:05:19.440Z,98339.05
2022-11-16T05:08:09.440Z,98340.23
2022-11-16T05:10:59.961Z,98342.23
2022-11-16T05:13:50.161Z,98352.60
2022-11-16T05:16:41.234Z,98356.64
2022-11-16T05:19:49.858Z,98353.98
2022-11-16T05:22:40.182Z,98354.68
2022-11-16T05:25:35.295Z,98352.22
2022-11-16T05:28:27.433Z,98354.20
2022-11-16T05:31:16.951Z,98357.00
2022-11-16T05:34:06.812Z,98360.46
2022-11-16T05:36:58.060Z,98362.77
2022-11-16T05:39:47.535Z,98364.73
2022-11-16T05:42:36.858Z,98361.53
2022-11-16T05:45:27.039Z,98362.99
2022-11-16T05:48:16.865Z,98367.71
2022-11-16T05:51:07.018Z,98366.41
2022-11-16T05:53:56.931Z,98367.02
2022-11-16T05:56:47.626Z,98369.48
2022-11-16T05:59:37.073Z,98372.15
2022-11-16T06:02:26.987Z,98370.00
2022-11-16T06:05:16.783Z,98368.16
2022-11-16T06:08:06.707Z,98366.14
2022-11-16T06:10:56.590Z,98364.19
2022-11-16T06:13:46.324Z,98367.46
2022-11-16T06:16:36.174Z,98367.34
2022-11-16T06:19:32.480Z,98363.28
2022-11-16T06:22:22.508Z,98367.21
2022-11-16T06:25:12.429Z,98368.10
2022-11-16T06:28:07.899Z,98369.67
2022-11-16T06:30:58.090Z,98377.98
2022-11-16T06:33:48.365Z,98380.11
2022-11-16T06:36:44.095Z,98376.92
2022-11-16T06:39:33.571Z,98376.89
2022-11-16T06:42:23.754Z,98379.80
2022-11-16T06:45:14.931Z,98383.79
2022-11-16T06:48:08.864Z,98382.86
2022-11-16T06:50:59.566Z,98383.28
2022-11-16T06:53:49.293Z,98390.66
2022-11-16T06:56:39.129Z,98392.02
2022-11-16T06:59:30.276Z,98395.27
2022-11-16T07:02:22.252Z,98401.05
2022-11-16T07:05:11.629Z,98403.58
2022-11-16T07:08:01.672Z,98400.95
2022-11-16T07:10:51.582Z,98397.55
2022-11-16T07:13:41.274Z,98398.78
2022-11-16T07:16:31.666Z,98400.22
2022-11-16T07:19:23.299Z,98400.69
2022-11-16T07:22:13.121Z,98397.92
2022-11-16T07:25:02.980Z,98401.41
2022-11-16T07:27:52.968Z,98402.91
2022-11-16T07:30:44.230Z,98406.73
2022-11-16T07:33:36.808Z,98412.98
2022-11-16T07:36:39.309Z,98409.64
2022-11-16T07:39:31.210Z,98411.01
2022-11-16T07:42:21.004Z,98414.31
2022-11-16T07:45:22.913Z,98411.98
2022-11-16T07:48:16.477Z,98411.98
2022-11-16T07:51:41.698Z,98411.74
2022-11-16T07:54:53.434Z,98416.57
2022-11-16T07:57:47.936Z,98416.70
2022-11-16T08:00:41.860Z,98415.35
2022-11-16T08:03:35.870Z,98417.71
2022-11-16T08:06:30.232Z,98417.31
2022-11-16T08:09:19.540Z,98419.25
2022-11-16T08:12:09.216Z,98420.24
2022-11-16T08:15:00.254Z,98413.39
2022-11-16T08:17:50.079Z,98410.30
2022-11-16T08:20:39.915Z,98410.25
2022-11-16T08:23:29.679Z,98411.01
2022-11-16T08:26:21.794Z,98410.28
2022-11-16T08:29:17.183Z,98408.34
2022-11-16T08:32:11.391Z,98412.34
2022-11-16T08:35:00.871Z,98411.29
2022-11-16T08:37:50.745Z,98412.07
2022-11-16T08:40:41.379Z,98411.23
2022-11-16T08:43:33.211Z,98405.67
2022-11-16T08:46:22.793Z,98400.92
2022-11-16T08:49:17.157Z,98401.27
2022-11-16T08:52:07.025Z,98403.56
2022-11-16T08:54:56.859Z,98407.36
2022-11-16T08:57:47.037Z,98404.00
2022-11-16T09:00:37.720Z,98401.73
2022-11-16T09:03:28.356Z,98401.84
2022-11-16T09:06:18.505Z,98406.88
2022-11-16T09:09:08.093Z,98417.70
2022-11-16T09:11:57.749Z,98421.92
2022-11-16T09:14:47.258Z,98417.86
2022-11-16T09:17:37.546Z,98420.69
2022-11-16T09:20:27.035Z,98419.57
2022-11-16T09:23:20.933Z,98425.53
2022-11-16T09:26:16.005Z,98431.70
2022-11-16T09:29:05.530Z,98430.55
2022-11-16T09:31:55.411Z,98434.20
2022-11-16T09:34:44.943Z,98434.06
2022-11-16T09:37:35.289Z,98429.22
2022-11-16T09:40:28.489Z,98424.84
2022-11-16T09:43:33.766Z,98426.50
2022-11-16T09:46:29.347Z,98426.17
2022-11-16T09:49:22.884Z,98427.54
2022-11-16T09:52:19.036Z,98427.24
2022-11-16T09:55:24.467Z,98425.60
2022-11-16T09:58:19.290Z,98421.48
2022-11-16T10:01:21.189Z,98420.57
2022-11-16T10:04:14.931Z,98420.69
2022-11-16T10:07:08.711Z,98421.94
2022-11-16T10:09:58.695Z,98415.48
2022-11-16T10:12:52.504Z,98408.05
2022-11-16T10:15:55.811Z,98405.23
2022-11-16T10:18:56.192Z,98407.79
2022-11-16T10:21:54.316Z,98409.14
2022-11-16T10:24:56.984Z,98405.73
2022-11-16T10:28:23.055Z,98404.38
2022-11-16T10:31:20.805Z,98407.15
2022-11-16T10:34:19.358Z,98408.73
2022-11-16T10:37:13.496Z,98408.81
2022-11-16T10:40:16.231Z,98401.66
2022-11-16T10:43:13.536Z,98410.81
2022-11-16T10:46:17.675Z,98418.31
2022-11-16T10:49:14.845Z,98413.98
2022-11-16T10:52:04.244Z,98408.15
2022-11-16T10:54:53.992Z,98406.22
2022-11-16T10:57:57.906Z,98406.70
2022-11-16T11:00:51.154Z,98406.61
2022-11-16T11:03:40.221Z,98401.28
2022-11-16T11:06:29.750Z,98399.64
2022-11-16T11:09:25.738Z,98393.45
2022-11-16T11:12:36.669Z,98383.49
2022-11-16T11:15:27.355Z,98374.59
2022-11-16T11:18:37.699Z,98366.42
2022-11-16T11:21:28.560Z,98344.89
2022-11-16T11:24:43.212Z,98327.83
2022-11-16T11:27:32.458Z,98313.31
2022-11-16T11:30:22.796Z,98306.73
2022-11-16T11:33:15.378Z,98298.13
2022-11-16T11:36:07.526Z,98298.02
2022-11-16T11:38:59.611Z,98294.16
2022-11-16T11:42:06.480Z,98284.67
2022-11-16T11:44:58.387Z,98276.27
2022-11-16T11:47:58.776Z,98270.77
2022-11-16T11:50:53.356Z,98268.39
2022-11-16T11:53:54.423Z,98262.00
2022-11-16T11:56:44.064Z,98258.50
2022-11-16T11:59:33.891Z,98255.57
2022-11-16T12:02:43.578Z,98252.66
2022-11-16T12:06:03.296Z,98242.11
2022-11-16T12:09:17.456Z,98232.21
2022-11-16T12:12:22.889Z,98233.15
2022-11-16T12:15:41.263Z,98236.20
2022-11-16T12:18:54.209Z,98240.73
2022-11-16T12:21:59.182Z,98234.17
2022-11-16T12:25:02.620Z,98229.65
2022-11-16T12:28:04.778Z,98229.77
2022-11-16T12:31:08.580Z,98229.55
2022-11-16T12:34:09.423Z,98235.20
2022-11-16T12:37:04.310Z,98230.89
2022-11-16T12:40:08.618Z,98233.75
2022-11-16T12:43:05.463Z,98235.65
2022-11-16T12:46:06.039Z,98238.38
2022-11-16T12:49:26.009Z,98241.14
2022-11-16T12:52:33.049Z,98242.17
2022-11-16T12:55:36.982Z,98239.55
2022-11-16T12:58:40.394Z,98238.41
2022-11-16T13:01:36.470Z,98230.98
2022-11-16T13:04:30.105Z,98218.05
2022-11-16T13:07:24.431Z,98207.06
2022-11-16T13:10:19.698Z,98196.38
2022-11-16T13:16:28.957Z,98204.29
2022-11-16T13:19:17.600Z,98210.19
2022-11-16T13:22:13.199Z,98204.19
2022-11-16T13:25:12.727Z,98200.03
2022-11-16T13:28:10.874Z,98203.12
2022-11-16T13:31:05.990Z,98200.48
2022-11-16T13:33:57.795Z,98196.77
2022-11-16T13:36:47.395Z,98192.22
2022-11-16T13:40:10.512Z,98192.21
2022-11-16T13:43:07.704Z,98191.33
2022-11-16T13:45:59.839Z,98188.20
2022-11-16T13:48:50.980Z,98181.45
2022-11-16T13:51:49.872Z,98179.66
2022-11-16T13:54:46.007Z,98171.63
2022-11-16T13:57:37.658Z,98165.12
2022-11-16T14:00:33.349Z,98164.43
2022-11-16T14:03:40.306Z,98162.95
2022-11-16T14:06:58.728Z,98165.99
2022-11-16T14:09:48.906Z,98163.59
2022-11-16T14:12:52.164Z,98167.25
2022-11-16T14:15:41.417Z,98171.25
2022-11-16T14:18:36.555Z,98171.52
2022-11-16T14:21:43.611Z,98177.11
2022-11-16T14:24:40.223Z,98180.45
2022-11-16T14:27:36.374Z,98183.10
2022-11-16T14:30:30.495Z,98182.25
2022-11-16T14:33:31.881Z,98188.97
2022-11-16T14:36:37.214Z,98192.36
2022-11-16T14:39:40.666Z,98193.79
2022-11-16T14:42:42.977Z,98188.80
2022-11-16T14:45:46.467Z,98187.73
2022-11-16T14:48:43.639Z,98182.27
2022-11-16T14:51:35.418Z,98183.38
2022-11-16T14:54:32.315Z,98179.34
2022-11-16T14:57:23.612Z,98172.02
2022-11-16T15:00:20.821Z,98168.79
2022-11-16T15:03:12.251Z,98173.52
2022-11-16T15:06:02.770Z,98173.14
2022-11-16T15:08:57.159Z,98171.88
2022-11-16T15:12:07.797Z,98172.99
2022-11-16T15:15:03.279Z,98173.52
2022-11-16T15:18:06.893Z,98175.99
2022-11-16T15:20:56.011Z,98170.73
2022-11-16T15:24:02.096Z,98166.09
2022-11-16T15:27:09.585Z,98168.23
2022-11-16T15:30:00.668Z,98174.54
2022-11-16T15:32:52.120Z,98176.43
2022-11-16T15:35:41.841Z,98176.42
2022-11-16T15:38:32.689Z,98176.02
2022-11-16T15:41:22.918Z,98176.10
2022-11-16T15:44:16.853Z,98179.27
2022-11-16T15:47:06.552Z,98178.44
2022-11-16T15:49:56.771Z,98176.80
2022-11-16T15:52:49.881Z,98176.83
2022-11-16T15:55:41.147Z,98173.55
2022-11-16T15:58:36.212Z,98174.27
2022-11-16T16:01:26.093Z,98176.58
2022-11-16T16:04:17.927Z,98176.41
2022-11-16T16:07:09.615Z,98179.47
2022-11-16T16:10:22.345Z,98180.36
2022-11-16T16:13:25.988Z,98182.55
2022-11-16T16:16:35.698Z,98182.05
2022-11-16T16:19:35.768Z,98180.50
2022-11-16T16:22:29.231Z,98186.15
2022-11-16T16:25:30.742Z,98183.16
2022-11-16T16:28:19.865Z,98183.98
2022-11-16T16:31:10.508Z,98187.16
2022-11-16T16:34:09.899Z,98190.03
2022-11-16T16:36:59.340Z,98186.74
2022-11-16T16:39:49.810Z,98191.80
2022-11-16T16:42:38.607Z,98192.32
2022-11-16T16:45:36.591Z,98191.66
2022-11-16T16:48:25.586Z,98197.13
2022-11-16T16:51:15.123Z,98199.09
2022-11-16T16:54:04.875Z,98195.65
2022-11-16T16:56:54.519Z,98192.81
2022-11-16T16:59:44.917Z,98194.60
2022-11-16T17:02:36.317Z,98195.92
2022-11-16T17:05:25.679Z,98199.28
2022-11-16T17:08:15.202Z,98201.25
2022-11-16T17:11:05.157Z,98203.98
2022-11-16T17:13:55.681Z,98207.89
2022-11-16T17:16:44.179Z,98207.74
2022-11-16T17:19:33.769Z,98207.61
2022-11-16T17:22:23.192Z,98205.23
2022-11-16T17:25:15.901Z,98206.65
2022-11-16T17:28:05.552Z,98206.39
2022-11-16T17:31:00.088Z,98206.98
2022-11-16T17:33:58.872Z,98203.17
2022-11-16T17:36:49.605Z,98198.91
2022-11-16T17:39:39.155Z,98199.52
2022-11-16T17:42:28.489Z,98199.73
2022-11-16T17:45:18.093Z,98201.85
2022-11-16T17:48:07.753Z,98204.98
2022-11-16T17:50:59.095Z,98204.77
2022-11-16T17:53:49.160Z,98205.58
2022-11-16T17:56:38.549Z,98204.23
2022-11-16T17:59:29.994Z,98208.08
2022-11-16T18:02:19.533Z,98206.78
2022-11-16T18:05:09.978Z,98208.73
2022-11-16T18:07:59.467Z,98209.02
2022-11-16T18:10:48.969Z,98210.72
2022-11-16T18:13:39.765Z,98210.23
2022-11-16T18:16:31.833Z,98209.11
2022-11-16T18:19:21.561Z,98209.65
2022-11-16T18:22:11.043Z,98211.82
2022-11-16T18:25:00.802Z,98213.31
2022-11-16T18:27:53.116Z,98208.27
2022-11-16T18:30:42.487Z,98209.92
2022-11-16T18:33:32.815Z,98214.23
2022-11-16T18:36:23.532Z,98217.13
2022-11-16T18:39:13.128Z,98218.66
2022-11-16T18:42:04.549Z,98220.59
2022-11-16T18:44:54.233Z,98221.16
2022-11-16T18:47:43.602Z,98221.86
2022-11-16T18:50:33.046Z,98223.66
2022-11-16T18:53:22.523Z,98228.81
2022-11-16T18:56:12.823Z,98229.64
2022-11-16T18:59:02.656Z,98232.89
2022-11-16T19:01:52.558Z,98233.23
2022-11-16T19:04:42.215Z,98235.05
2022-11-16T19:07:31.896Z,98237.09
2022-11-16T19:10:21.608Z,98241.23
2022-11-16T19:13:11.422Z,98241.86
2022-11-16T19:16:01.323Z,98239.95
2022-11-16T19:18:51.410Z,98236.32
2022-11-16T19:21:41.380Z,98240.60
2022-11-16T19:24:31.202Z,98239.95
2022-11-16T19:27:20.861Z,98244.02
2022-11-16T19:30:11.765Z,98241.73
2022-11-16T19:33:01.972Z,98241.74
2022-11-16T19:35:51.600Z,98241.05
2022-11-16T19:38:41.419Z,98245.48
2022-11-16T19:41:31.546Z,98242.00
2022-11-16T19:44:21.055Z,98241.26
2022-11-16T19:47:10.584Z,98241.21
2022-11-16T19:50:00.231Z,98240.31
2022-11-16T19:52:49.895Z,98241.73
2022-11-16T19:55:39.503Z,98241.84
2022-11-16T19:58:30.412Z,98243.06
2022-11-16T20:01:22.985Z,98244.33
2022-11-16T20:04:13.642Z,98245.36
2022-11-16T20:07:05.056Z,98248.98
2022-11-16T20:09:54.442Z,98249.71
2022-11-16T20:12:43.878Z,98256.15
2022-11-16T20:15:33.685Z,98258.25
2022-11-16T20:18:23.131Z,98260.39
2022-11-16T20:21:17.400Z,98259.73
2022-11-16T20:24:10.615Z,98255.52
2022-11-16T20:27:00.188Z,98258.93
2022-11-16T20:29:49.866Z,98257.13
2022-11-16T20:32:39.355Z,98258.84
2022-11-16T20:35:28.919Z,98259.45
2022-11-16T20:38:18.357Z,98261.27
2022-11-16T20:41:12.775Z,98262.63
2022-11-16T20:44:02.836Z,98262.63
2022-11-16T20:46:53.804Z,98262.38
2022-11-16T20:49:43.154Z,98262.55
2022-11-16T20:52:32.597Z,98263.70
2022-11-16T20:55:22.720Z,98262.92
2022-11-16T20:58:12.530Z,98262.18
2022-11-16T21:01:04.420Z,98263.78
2022-11-16T21:03:56.399Z,98263.16
2022-11-16T21:06:46.144Z,98261.53
2022-11-16T21:09:56.132Z,98262.47
2022-11-16T21:13:05.037Z,98266.93
2022-11-16T21:16:00.540Z,98267.02
2022-11-16T21:18:50.968Z,98267.84
2022-11-16T21:21:41.572Z,98265.58
2022-11-16T21:24:32.002Z,98267.58
2022-11-16T21:27:21.838Z,98268.66
2022-11-16T21:30:14.344Z,98271.61
2022-11-16T21:33:04.726Z,98270.41
2022-11-16T21:35:55.172Z,98270.93
2022-11-16T21:38:45.617Z,98270.11
2022-11-16T21:41:37.542Z,98266.77
2022-11-16T21:44:41.446Z,98272.94
2022-11-16T21:47:30.964Z,98273.58
2022-11-16T21:50:35.534Z,98273.56
2022-11-16T21:53:25.149Z,98275.42
2022-11-16T21:56:16.698Z,98279.12
2022-11-16T21:59:05.946Z,98280.15
2022-11-16T22:02:01.663Z,98285.95
2022-11-16T22:05:09.707Z,98291.92
2022-11-16T22:08:04.919Z,98301.14
2022-11-16T22:10:54.141Z,98310.15
2022-11-16T22:13:43.812Z,98315.77
2022-11-16T22:16:33.129Z,98321.20
2022-11-16T22:19:22.614Z,98322.27
2022-11-16T22:22:11.985Z,98322.35
2022-11-16T22:25:01.610Z,98324.95
2022-11-16T22:28:20.089Z,98331.13
2022-11-16T22:31:04.715Z,98335.39
2022-11-16T22:33:53.896Z,98340.63
2022-11-16T22:36:43.330Z,98342.41
2022-11-16T22:39:39.314Z,98339.83
2022-11-16T22:42:29.292Z,98335.98
2022-11-16T22:45:18.851Z,98335.91
2022-11-16T22:48:08.667Z,98338.45
2022-11-16T22:51:05.262Z,98338.52
2022-11-16T22:53:55.115Z,98337.70
2022-11-16T22:56:44.478Z,98339.42
2022-11-16T22:59:34.200Z,98336.64
2022-11-16T23:02:23.652Z,98340.98
2022-11-16T23:05:13.806Z,98347.23
2022-11-16T23:08:03.489Z,98346.92
2022-11-16T23:11:19.586Z,98346.44
2022-11-16T23:14:30.107Z,98345.64
2022-11-16T23:17:23.605Z,98347.90
2022-11-16T23:20:31.349Z,98352.56
2022-11-16T23:23:39.574Z,98353.71
2022-11-16T23:26:47.438Z,98359.51
2022-11-16T23:29:37.135Z,98358.60
2022-11-16T23:32:27.166Z,98359.47
2022-11-16T23:35:20.655Z,98359.59
2022-11-16T23:38:10.387Z,98361.27
2022-11-16T23:41:20.725Z,98364.69
2022-11-16T23:44:11.159Z,98368.28
2022-11-16T23:47:01.136Z,98368.89
2022-11-16T23:49:51.684Z,98373.11
2022-11-16T23:52:40.586Z,98371.95
2022-11-16T23:55:32.061Z,98370.80
2022-11-16T23:58:21.888Z,98370.88
